createdAt,value
2017-08-28T00:02:00.007Z,6.90
2017-08-28T00:04:32.374Z,7.87
2017-08-28T00:07:06.243Z,6.57
2017-08-28T00:09:38.877Z,6.47
2017-08-28T00:12:11.423Z,6.50
2017-08-28T00:14:43.710Z,5.23
2017-08-28T00:17:16.344Z,6.13
2017-08-28T00:19:48.706Z,5.90
2017-08-28T00:22:21.449Z,5.53
2017-08-28T00:24:53.761Z,5.27
2017-08-28T00:27:26.352Z,5.43
2017-08-28T00:29:58.633Z,5.40
2017-08-28T00:32:31.108Z,5.33
2017-08-28T00:35:03.412Z,5.90
2017-08-28T00:37:36.166Z,4.90
2017-08-28T00:40:08.472Z,5.77
2017-08-28T00:42:41.234Z,5.30
2017-08-28T00:45:13.437Z,5.40
2017-08-28T00:47:46.273Z,5.67
2017-08-28T00:50:18.494Z,5.73
2017-08-28T00:52:51.018Z,5.37
2017-08-28T00:55:23.153Z,5.60
2017-08-28T00:57:55.660Z,5.13
2017-08-28T01:00:27.944Z,5.20
2017-08-28T01:03:00.587Z,5.10
2017-08-28T01:05:32.839Z,5.77
2017-08-28T01:08:05.458Z,5.47
2017-08-28T01:10:37.907Z,5.60
2017-08-28T01:13:10.596Z,5.33
2017-08-28T01:15:43.092Z,5.07
2017-08-28T01:18:15.746Z,5.90
2017-08-28T01:20:48.102Z,5.50
2017-08-28T01:23:20.693Z,5.70
2017-08-28T01:25:53.010Z,5.17
2017-08-28T01:28:25.469Z,5.60
2017-08-28T01:30:57.774Z,6.10
2017-08-28T01:33:30.393Z,5.20
2017-08-28T01:36:02.674Z,5.00
2017-08-28T01:38:35.136Z,5.73
2017-08-28T01:41:07.535Z,5.47
2017-08-28T01:43:40.205Z,5.67
2017-08-28T01:46:12.458Z,5.20
2017-08-28T01:48:44.941Z,5.83
2017-08-28T01:51:17.287Z,6.13
2017-08-28T01:53:49.885Z,5.83
2017-08-28T01:56:22.222Z,6.37
2017-08-28T01:58:54.849Z,6.20
2017-08-28T02:01:27.045Z,5.10
2017-08-28T02:03:59.689Z,6.43
2017-08-28T02:06:32.058Z,5.43
2017-08-28T02:09:04.945Z,6.20
2017-08-28T02:11:37.251Z,6.00
2017-08-28T02:14:09.789Z,7.37
2017-08-28T02:16:41.956Z,6.73
2017-08-28T02:19:14.651Z,6.50
2017-08-28T02:21:46.914Z,6.30
2017-08-28T02:24:19.689Z,6.27
2017-08-28T02:26:51.868Z,8.03
2017-08-28T02:29:24.375Z,8.37
2017-08-28T02:31:56.618Z,7.27
2017-08-28T02:34:29.394Z,7.17
2017-08-28T02:37:01.629Z,7.70
2017-08-28T02:39:34.428Z,7.30
2017-08-28T02:42:06.687Z,7.50
2017-08-28T02:44:39.407Z,6.70
2017-08-28T02:47:11.829Z,7.70
2017-08-28T02:49:45.882Z,7.53
2017-08-28T02:52:18.231Z,8.17
2017-08-28T02:54:50.500Z,6.53
2017-08-28T02:57:22.886Z,7.70
2017-08-28T02:59:55.405Z,6.50
2017-08-28T03:02:27.767Z,7.00
2017-08-28T03:05:00.477Z,7.43
2017-08-28T03:07:32.849Z,8.07
2017-08-28T03:10:05.593Z,6.60
2017-08-28T03:12:37.796Z,6.77
2017-08-28T03:15:10.459Z,7.27
2017-08-28T03:17:42.806Z,6.47
2017-08-28T03:20:15.273Z,6.67
2017-08-28T03:22:47.707Z,5.80
2017-08-28T03:25:20.255Z,6.17
2017-08-28T03:27:52.570Z,5.87
2017-08-28T03:30:25.210Z,5.40
2017-08-28T03:32:57.513Z,5.63
2017-08-28T03:35:30.193Z,5.80
2017-08-28T03:38:02.364Z,6.10
2017-08-28T03:40:35.068Z,5.73
2017-08-28T03:43:07.258Z,5.70
2017-08-28T03:45:39.681Z,5.83
2017-08-28T03:48:12.072Z,5.97
2017-08-28T03:50:44.777Z,5.90
2017-08-28T03:53:17.230Z,6.33
2017-08-28T03:55:49.832Z,5.97
2017-08-28T03:58:22.082Z,5.03
2017-08-28T04:00:54.735Z,6.50
2017-08-28T04:03:27.087Z,6.13
2017-08-28T04:05:59.665Z,6.60
2017-08-28T04:08:31.891Z,6.33
2017-08-28T04:11:04.564Z,6.47
2017-08-28T04:13:36.727Z,6.80
2017-08-28T04:16:09.351Z,7.73
2017-08-28T04:18:41.669Z,6.50
2017-08-28T04:21:14.256Z,7.13
2017-08-28T04:23:46.483Z,7.40
2017-08-28T04:26:19.181Z,7.10
2017-08-28T04:28:51.334Z,6.87
2017-08-28T04:31:23.875Z,7.30
2017-08-28T04:33:56.298Z,6.90
2017-08-28T04:36:28.861Z,6.40
2017-08-28T04:39:01.106Z,7.20
2017-08-28T04:41:33.585Z,7.77
2017-08-28T04:44:05.982Z,8.40
2017-08-28T04:46:38.623Z,7.53
2017-08-28T04:49:10.886Z,8.50
2017-08-28T04:51:43.447Z,8.23
2017-08-28T04:54:15.665Z,8.30
2017-08-28T04:56:48.112Z,8.20
2017-08-28T04:59:20.352Z,8.83
2017-08-28T05:01:53.085Z,8.30
2017-08-28T05:04:25.297Z,8.57
2017-08-28T05:06:57.896Z,8.07
2017-08-28T05:09:30.171Z,8.30
2017-08-28T05:12:02.736Z,8.90
2017-08-28T05:14:34.968Z,9.63
2017-08-28T05:17:07.831Z,8.43
2017-08-28T05:19:40.197Z,8.30
2017-08-28T05:22:12.737Z,8.77
2017-08-28T05:24:45.066Z,8.90
2017-08-28T05:27:17.705Z,8.57
2017-08-28T05:29:50.027Z,8.70
2017-08-28T05:32:22.852Z,7.90
2017-08-28T05:34:55.166Z,8.50
2017-08-28T05:37:27.748Z,8.50
2017-08-28T05:40:00.059Z,7.90
2017-08-28T05:42:32.756Z,7.73
2017-08-28T05:45:05.021Z,7.60
2017-08-28T05:47:37.678Z,7.90
2017-08-28T05:50:09.974Z,7.50
2017-08-28T05:52:42.765Z,8.27
2017-08-28T05:55:15.003Z,7.60
2017-08-28T05:57:47.797Z,8.40
2017-08-28T06:00:20.075Z,8.50
2017-08-28T06:02:52.848Z,7.60
2017-08-28T06:05:25.093Z,7.30
2017-08-28T06:07:57.732Z,7.50
2017-08-28T06:10:30.047Z,7.50
2017-08-28T06:13:02.698Z,6.70
2017-08-28T06:15:34.882Z,11.03
2017-08-28T06:18:07.176Z,8.07
2017-08-28T06:20:39.283Z,7.03
2017-08-28T06:23:11.593Z,7.07
2017-08-28T06:25:43.761Z,7.30
2017-08-28T06:28:15.936Z,8.03
2017-08-28T06:30:48.259Z,7.30
2017-08-28T06:33:20.699Z,6.40
2017-08-28T06:35:52.985Z,6.67
2017-08-28T06:38:25.325Z,6.13
2017-08-28T06:40:57.638Z,6.57
2017-08-28T06:43:30.057Z,6.37
2017-08-28T06:46:02.324Z,6.37
2017-08-28T06:48:34.581Z,8.00
2017-08-28T06:51:06.944Z,6.00
2017-08-28T06:53:39.231Z,7.03
2017-08-28T06:56:11.535Z,8.07
2017-08-28T06:58:43.900Z,11.80
2017-08-28T07:01:16.254Z,5.90
2017-08-28T07:03:48.404Z,7.40
2017-08-28T07:06:20.702Z,6.00
2017-08-28T07:08:53.001Z,10.27
2017-08-28T07:11:25.157Z,5.93
2017-08-28T07:13:57.600Z,4.73
2017-08-28T07:16:29.809Z,5.57
2017-08-28T07:19:02.343Z,7.83
2017-08-28T07:21:34.654Z,5.33
2017-08-28T07:24:06.891Z,5.80
2017-08-28T07:26:39.177Z,6.53
2017-08-28T07:29:12.153Z,6.00
2017-08-28T07:31:44.626Z,5.57
2017-08-28T07:34:17.029Z,7.07
2017-08-28T07:36:49.821Z,5.97
2017-08-28T07:39:22.285Z,4.70
2017-08-28T07:41:54.613Z,4.93
2017-08-28T07:44:27.038Z,6.23
2017-08-28T07:46:59.453Z,6.23
2017-08-28T07:49:31.762Z,6.20
2017-08-28T07:52:04.201Z,5.27
2017-08-28T07:54:36.622Z,8.17
2017-08-28T07:57:09.105Z,5.37
2017-08-28T07:59:41.353Z,5.47
2017-08-28T08:02:13.487Z,5.57
2017-08-28T08:04:47.092Z,7.30
2017-08-28T08:07:19.483Z,5.20
2017-08-28T08:09:51.806Z,5.37
2017-08-28T08:12:24.549Z,6.80
2017-08-28T08:14:56.870Z,4.97
2017-08-28T08:17:29.159Z,5.40
2017-08-28T08:20:01.680Z,4.63
2017-08-28T08:22:33.844Z,4.90
2017-08-28T08:25:06.365Z,5.60
2017-08-28T08:27:38.574Z,3.90
2017-08-28T08:30:10.916Z,5.50
2017-08-28T08:32:43.408Z,4.10
2017-08-28T08:35:15.576Z,5.80
2017-08-28T08:37:48.257Z,4.97
2017-08-28T08:40:20.979Z,22.00
2017-08-28T08:42:56.638Z,8.03
2017-08-28T08:45:29.270Z,12.33
2017-08-28T08:48:01.580Z,14.67
2017-08-28T08:50:35.195Z,2.90
2017-08-28T08:53:07.495Z,3.13
2017-08-28T08:55:40.008Z,7.90
2017-08-28T08:58:12.307Z,11.80
2017-08-28T09:00:44.764Z,8.70
2017-08-28T09:03:33.526Z,3.40
2017-08-28T09:06:06.546Z,3.37
2017-08-28T09:08:38.912Z,2.40
2017-08-28T09:11:11.336Z,2.43
2017-08-28T09:13:44.141Z,2.90
2017-08-28T09:16:16.592Z,2.60
2017-08-28T09:18:48.993Z,2.60
2017-08-28T09:21:21.493Z,3.57
2017-08-28T09:23:53.685Z,4.20
2017-08-28T09:26:26.223Z,2.30
2017-08-28T09:28:58.690Z,7.70
2017-08-28T09:31:31.172Z,5.10
2017-08-28T09:34:04.508Z,6.63
2017-08-28T09:36:36.698Z,2.60
2017-08-28T09:39:08.910Z,9.87
2017-08-28T09:41:41.210Z,5.07
2017-08-28T09:44:13.495Z,3.37
2017-08-28T09:46:45.954Z,6.33
2017-08-28T09:49:18.142Z,8.83
2017-08-28T09:51:50.649Z,1.17
2017-08-28T09:54:23.094Z,2.03
2017-08-28T09:56:55.524Z,6.93
2017-08-28T09:59:27.774Z,7.67
2017-08-28T10:02:00.068Z,6.00
2017-08-28T10:04:32.536Z,3.50
2017-08-28T10:07:05.097Z,2.93
2017-08-28T10:09:37.407Z,4.30
2017-08-28T10:12:09.593Z,3.90
2017-08-28T10:14:42.530Z,7.93
2017-08-28T10:17:14.887Z,4.80
2017-08-28T10:19:47.407Z,4.17
2017-08-28T10:22:19.814Z,2.10
2017-08-28T10:24:52.142Z,4.10
2017-08-28T10:27:24.359Z,6.50
2017-08-28T10:29:56.632Z,2.33
2017-08-28T10:32:28.952Z,11.03
2017-08-28T10:35:01.273Z,2.07
2017-08-28T10:37:33.576Z,2.37
2017-08-28T10:40:05.817Z,2.20
2017-08-28T10:42:38.205Z,2.00
2017-08-28T10:45:10.541Z,3.20
2017-08-28T10:47:42.954Z,2.90
2017-08-28T10:50:15.262Z,2.93
2017-08-28T10:52:47.599Z,2.33
2017-08-28T10:55:20.009Z,3.57
2017-08-28T10:57:53.497Z,3.00
2017-08-28T11:00:25.838Z,2.90
2017-08-28T11:02:58.063Z,6.10
2017-08-28T11:05:30.790Z,8.10
2017-08-28T11:08:03.093Z,2.23
2017-08-28T11:10:35.415Z,2.60
2017-08-28T11:13:07.911Z,2.80
2017-08-28T11:15:40.208Z,2.33
2017-08-28T11:18:12.890Z,2.40
2017-08-28T11:20:45.321Z,3.47
2017-08-28T11:23:18.020Z,1.30
2017-08-28T11:25:50.337Z,2.43
2017-08-28T11:28:23.165Z,3.20
2017-08-28T11:30:55.351Z,1.90
2017-08-28T11:33:28.003Z,2.20
2017-08-28T11:36:00.237Z,1.60
2017-08-28T11:38:32.980Z,1.33
2017-08-28T11:41:05.179Z,3.70
2017-08-28T11:43:37.802Z,1.70
2017-08-28T11:46:10.156Z,2.47
2017-08-28T11:48:42.872Z,2.03
2017-08-28T11:51:15.069Z,1.53
2017-08-28T11:53:47.868Z,1.40
2017-08-28T11:56:20.056Z,1.47
2017-08-28T11:58:52.792Z,3.10
2017-08-28T12:01:25.019Z,2.00
2017-08-28T12:03:57.607Z,1.77
2017-08-28T12:06:30.053Z,3.53
2017-08-28T12:09:02.698Z,1.53
2017-08-28T12:11:34.977Z,2.33
2017-08-28T12:14:07.467Z,2.80
2017-08-28T12:16:39.728Z,3.80
2017-08-28T12:19:12.485Z,1.63
2017-08-28T12:21:44.775Z,1.73
2017-08-28T12:24:17.287Z,1.40
2017-08-28T12:26:49.590Z,2.20
2017-08-28T12:29:22.209Z,1.50
2017-08-28T12:31:54.360Z,2.10
2017-08-28T12:34:26.906Z,1.20
2017-08-28T12:36:59.225Z,1.73
2017-08-28T12:39:31.691Z,1.40
2017-08-28T12:42:04.036Z,1.60
2017-08-28T12:44:36.651Z,1.20
2017-08-28T12:47:08.960Z,2.10
2017-08-28T12:49:41.591Z,2.40
2017-08-28T12:52:13.724Z,2.27
2017-08-28T12:54:46.320Z,1.40
2017-08-28T12:57:18.622Z,1.40
2017-08-28T12:59:51.242Z,3.07
2017-08-28T13:02:23.740Z,1.63
2017-08-28T13:04:56.347Z,1.50
2017-08-28T13:07:28.690Z,1.80
2017-08-28T13:10:01.438Z,2.83
2017-08-28T13:12:33.776Z,1.73
2017-08-28T13:15:11.035Z,1.80
2017-08-28T13:17:44.069Z,1.40
2017-08-28T13:20:16.797Z,3.90
2017-08-28T13:22:49.106Z,3.70
2017-08-28T13:25:21.896Z,4.27
2017-08-28T13:27:54.042Z,2.83
2017-08-28T13:30:26.310Z,1.30
2017-08-28T13:32:59.257Z,2.47
2017-08-28T13:35:31.621Z,1.83
2017-08-28T13:38:03.948Z,1.50
2017-08-28T13:40:36.224Z,2.93
2017-08-28T13:43:09.419Z,1.60
2017-08-28T13:45:41.701Z,2.13
2017-08-28T13:48:17.223Z,3.20
2017-08-28T13:50:49.548Z,1.30
2017-08-28T13:53:21.849Z,1.30
2017-08-28T13:55:54.096Z,1.60
2017-08-28T13:58:26.333Z,2.90
2017-08-28T14:00:58.625Z,1.57
2017-08-28T14:03:30.920Z,1.50
2017-08-28T14:06:03.427Z,1.93
2017-08-28T14:08:35.542Z,2.50
2017-08-28T14:11:07.907Z,1.77
2017-08-28T14:13:40.174Z,1.60
2017-08-28T14:16:12.363Z,3.90
2017-08-28T14:18:44.810Z,2.17
2017-08-28T14:21:17.249Z,1.77
2017-08-28T14:23:49.537Z,1.70
2017-08-28T14:26:21.909Z,1.50
2017-08-28T14:28:54.238Z,1.60
2017-08-28T14:31:26.514Z,3.27
2017-08-28T14:33:58.777Z,2.20
2017-08-28T14:36:30.946Z,1.50
2017-08-28T14:39:03.238Z,2.40
2017-08-28T14:41:35.458Z,2.30
2017-08-28T14:44:07.866Z,2.10
2017-08-28T14:46:40.222Z,1.63
2017-08-28T14:49:12.486Z,1.50
2017-08-28T14:51:44.995Z,4.77
2017-08-28T14:54:17.270Z,2.13
2017-08-28T14:56:49.694Z,5.40
2017-08-28T14:59:22.014Z,2.13
2017-08-28T15:01:54.472Z,2.60
2017-08-28T15:04:26.889Z,1.57
2017-08-28T15:06:59.286Z,5.20
2017-08-28T15:09:31.653Z,3.07
2017-08-28T15:12:03.951Z,12.90
2017-08-28T15:14:36.261Z,10.57
2017-08-28T15:17:08.526Z,7.30
2017-08-28T15:19:41.115Z,15.37
2017-08-28T15:22:13.225Z,11.40
2017-08-28T15:24:45.412Z,12.30
2017-08-28T15:27:17.892Z,34.47
2017-08-28T15:29:50.098Z,17.17
2017-08-28T15:32:22.302Z,27.90
2017-08-28T15:34:54.544Z,2.10
2017-08-28T15:37:26.886Z,6.47
2017-08-28T15:39:59.210Z,7.37
2017-08-28T15:42:31.493Z,7.90
2017-08-28T15:45:03.804Z,6.77
2017-08-28T15:47:36.185Z,7.70
2017-08-28T15:50:08.439Z,6.77
2017-08-28T15:52:40.954Z,6.20
2017-08-28T15:55:13.203Z,3.83
2017-08-28T15:57:45.538Z,3.33
2017-08-28T16:00:17.781Z,4.87
2017-08-28T16:02:50.164Z,3.90
2017-08-28T16:05:22.412Z,3.37
2017-08-28T16:07:54.718Z,4.17
2017-08-28T16:10:27.073Z,2.27
2017-08-28T16:12:59.472Z,4.13
2017-08-28T16:15:31.761Z,6.80
2017-08-28T16:18:04.129Z,6.27
2017-08-28T16:20:36.537Z,12.00
2017-08-28T16:23:08.918Z,14.87
2017-08-28T16:25:41.310Z,9.13
2017-08-28T16:28:13.725Z,10.47
2017-08-28T16:30:46.066Z,7.73
2017-08-28T16:33:18.382Z,3.30
2017-08-28T16:35:50.784Z,7.63
2017-08-28T16:38:23.263Z,5.63
2017-08-28T16:40:55.548Z,5.30
2017-08-28T16:43:27.813Z,11.67
2017-08-28T16:46:00.235Z,7.10
2017-08-28T16:48:32.797Z,4.27
2017-08-28T16:51:05.125Z,4.77
2017-08-28T16:53:37.548Z,8.13
2017-08-28T16:56:09.773Z,11.00
2017-08-28T16:58:42.037Z,9.60
2017-08-28T17:01:14.390Z,13.87
2017-08-28T17:03:46.713Z,6.67
2017-08-28T17:06:18.964Z,10.87
2017-08-28T17:08:51.267Z,5.97
2017-08-28T17:11:23.436Z,5.73
2017-08-28T17:13:55.799Z,6.50
2017-08-28T17:16:28.160Z,2.83
2017-08-28T17:19:00.392Z,3.10
2017-08-28T17:21:32.763Z,9.20
2017-08-28T17:24:05.231Z,10.33
2017-08-28T17:26:37.646Z,3.77
2017-08-28T17:29:09.940Z,3.83
2017-08-28T17:31:42.239Z,3.07
2017-08-28T17:34:14.706Z,3.37
2017-08-28T17:36:47.076Z,20.60
2017-08-28T17:39:19.532Z,11.00
2017-08-28T17:41:51.766Z,12.83
2017-08-28T17:44:24.080Z,9.70
2017-08-28T17:46:56.438Z,7.37
2017-08-28T17:49:28.806Z,10.30
2017-08-28T17:52:01.842Z,11.70
2017-08-28T17:54:34.147Z,14.47
2017-08-28T17:57:06.496Z,15.00
2017-08-28T17:59:38.789Z,6.47
2017-08-28T18:02:11.231Z,12.93
2017-08-28T18:04:44.009Z,9.70
2017-08-28T18:07:16.219Z,9.07
2017-08-28T18:09:48.686Z,6.47
2017-08-28T18:12:21.035Z,6.70
2017-08-28T18:14:53.340Z,8.93
2017-08-28T18:17:25.788Z,16.70
2017-08-28T18:19:58.113Z,15.90
2017-08-28T18:22:30.505Z,14.23
2017-08-28T18:25:02.966Z,12.30
2017-08-28T18:27:35.232Z,14.20
2017-08-28T18:30:07.764Z,13.80
2017-08-28T18:32:40.002Z,7.50
2017-08-28T18:35:12.393Z,11.67
2017-08-28T18:37:44.733Z,7.80
2017-08-28T18:40:17.143Z,8.03
2017-08-28T18:42:49.599Z,19.97
2017-08-28T18:45:22.454Z,22.20
2017-08-28T18:47:55.000Z,29.37
2017-08-28T18:50:27.424Z,12.40
2017-08-28T18:52:59.952Z,9.50
2017-08-28T18:55:32.282Z,11.87
2017-08-28T18:58:04.733Z,13.33
2017-08-28T19:00:37.028Z,11.00
2017-08-28T19:03:09.480Z,10.43
2017-08-28T19:05:41.936Z,10.40
2017-08-28T19:08:15.399Z,8.90
2017-08-28T19:10:48.146Z,11.23
2017-08-28T19:13:20.380Z,14.80
2017-08-28T19:15:52.788Z,14.73
2017-08-28T19:18:25.159Z,10.93
2017-08-28T19:20:57.258Z,12.17
2017-08-28T19:23:29.798Z,14.53
2017-08-28T19:26:02.433Z,12.30
2017-08-28T19:28:34.775Z,13.43
2017-08-28T19:31:06.988Z,12.07
2017-08-28T19:33:40.855Z,9.50
2017-08-28T19:36:13.146Z,11.77
2017-08-28T19:38:45.513Z,15.83
2017-08-28T19:41:17.890Z,9.87
2017-08-28T19:43:50.287Z,12.47
2017-08-28T19:46:22.672Z,12.37
2017-08-28T19:48:55.063Z,13.57
2017-08-28T19:51:28.435Z,12.90
2017-08-28T19:54:00.700Z,9.37
2017-08-28T19:56:33.035Z,11.03
2017-08-28T19:59:05.302Z,15.60
2017-08-28T20:01:40.393Z,9.43
2017-08-28T20:04:12.700Z,9.97
2017-08-28T20:06:45.206Z,11.23
2017-08-28T20:09:17.732Z,12.90
2017-08-28T20:11:50.103Z,10.90
2017-08-28T20:14:22.280Z,12.47
2017-08-28T20:16:54.534Z,14.90
2017-08-28T20:19:27.138Z,13.60
2017-08-28T20:21:59.488Z,13.40
2017-08-28T20:24:31.930Z,11.00
2017-08-28T20:27:05.880Z,10.97
2017-08-28T20:29:39.181Z,10.07
2017-08-28T20:32:11.888Z,10.67
2017-08-28T20:34:44.248Z,11.57
2017-08-28T20:37:16.777Z,11.23
2017-08-28T20:39:48.933Z,15.50
2017-08-28T20:42:21.291Z,11.83
2017-08-28T20:44:53.692Z,30.67
2017-08-28T20:47:25.883Z,28.20
2017-08-28T20:49:58.320Z,12.07
2017-08-28T20:52:30.663Z,12.73
2017-08-28T20:55:02.969Z,31.73
2017-08-28T20:57:35.230Z,19.83
2017-08-28T21:00:07.563Z,11.00
2017-08-28T21:02:39.843Z,11.87
2017-08-28T21:05:12.306Z,15.20
2017-08-28T21:07:44.575Z,15.13
2017-08-28T21:10:17.115Z,13.23
2017-08-28T21:12:49.526Z,12.30
2017-08-28T21:15:21.889Z,12.93
2017-08-28T21:17:54.318Z,16.50
2017-08-28T21:20:26.577Z,18.70
2017-08-28T21:22:59.070Z,13.90
2017-08-28T21:25:31.489Z,23.63
2017-08-28T21:28:03.982Z,13.47
2017-08-28T21:30:36.298Z,15.77
2017-08-28T21:33:08.874Z,13.90
2017-08-28T21:35:41.409Z,12.63
2017-08-28T21:38:13.623Z,12.17
2017-08-28T21:40:45.962Z,12.37
2017-08-28T21:43:18.089Z,14.00
2017-08-28T21:45:50.542Z,21.77
2017-08-28T21:48:22.995Z,13.10
2017-08-28T21:50:55.145Z,14.37
2017-08-28T21:53:27.560Z,13.70
2017-08-28T21:55:59.893Z,13.30
2017-08-28T21:58:32.181Z,13.37
2017-08-28T22:01:04.470Z,12.67
2017-08-28T22:03:37.771Z,14.40
2017-08-28T22:06:10.182Z,13.17
2017-08-28T22:08:42.473Z,14.50
2017-08-28T22:11:14.817Z,15.67
2017-08-28T22:13:47.367Z,16.23
2017-08-28T22:16:19.762Z,20.43
2017-08-28T22:18:52.095Z,13.30
2017-08-28T22:21:24.495Z,13.40
2017-08-28T22:23:56.753Z,13.93
2017-08-28T22:26:28.980Z,28.10
2017-08-28T22:29:01.524Z,23.33
2017-08-28T22:31:33.891Z,26.73
2017-08-28T22:34:06.267Z,28.37
2017-08-28T22:36:38.750Z,18.57
2017-08-28T22:39:11.439Z,14.97
2017-08-28T22:41:43.932Z,14.37
2017-08-28T22:44:16.442Z,14.83
2017-08-28T22:46:48.832Z,18.30
2017-08-28T22:49:21.063Z,26.30
2017-08-28T22:51:53.369Z,18.60
2017-08-28T22:54:25.686Z,16.10
2017-08-28T22:56:57.918Z,16.37
2017-08-28T22:59:30.365Z,17.90
2017-08-28T23:02:02.732Z,33.63
2017-08-28T23:04:34.942Z,35.23
2017-08-28T23:07:07.237Z,18.10
2017-08-28T23:09:39.615Z,32.57
2017-08-28T23:12:11.757Z,36.23
2017-08-28T23:17:23.305Z,19.30
2017-08-28T23:19:55.718Z,21.47
2017-08-28T23:22:28.070Z,15.10
2017-08-28T23:25:00.462Z,14.80
2017-08-28T23:27:32.614Z,14.37
2017-08-28T23:30:05.109Z,15.33
2017-08-28T23:32:37.470Z,13.93
2017-08-28T23:35:09.803Z,13.67
2017-08-28T23:37:42.200Z,14.17
2017-08-28T23:40:14.782Z,14.60
2017-08-28T23:42:47.064Z,13.67
2017-08-28T23:45:19.468Z,14.27
2017-08-28T23:47:51.691Z,14.03
2017-08-28T23:50:24.037Z,14.93
2017-08-28T23:52:56.277Z,14.70
2017-08-28T23:55:28.878Z,14.47
2017-08-28T23:58:01.159Z,13.23
